Terminal Aerodrome Forecast
Issued by NWS

Home | Current Version | Previous Version | Text Only | Print | Product List | Glossary On
Versions: 1 2 3 4 5 6 7 8 9 10 11 12 13 14
000
FTUS45 KTFX 251123
TAFBZN
TAF
KBZN 251123Z 2512/2612 VRB06KT P6SM SKC
     FM252000 34005KT P6SM SCT090
     FM260000 VRB06KT P6SM VCTS SCT070CB BKN100
     FM260300 VRB06KT P6SM FEW150=

USA.gov is the U.S. government's official web portal to all federal, state and local government web resources and services.